sensor_id;sensor_type;location;lat;lon;timestamp;P1;durP1;ratioP1;P2;durP2;ratioP2
39728;SDS011;25402;42.004;23.088;2022-09-01T00:01:09;22.33;;;17.00;;
39728;SDS011;25402;42.004;23.088;2022-09-01T00:03:38;33.00;;;18.17;;
39728;SDS011;25402;42.004;23.088;2022-09-01T00:06:07;26.50;;;17.92;;
39728;SDS011;25402;42.004;23.088;2022-09-01T00:08:35;26.23;;;17.98;;
39728;SDS011;25402;42.004;23.088;2022-09-01T00:11:04;26.15;;;17.70;;
39728;SDS011;25402;42.004;23.088;2022-09-01T00:13:31;25.10;;;17.40;;
39728;SDS011;25402;42.004;23.088;2022-09-01T00:15:58;25.38;;;17.08;;
39728;SDS011;25402;42.004;23.088;2022-09-01T00:18:28;24.40;;;17.38;;
39728;SDS011;25402;42.004;23.088;2022-09-01T00:20:56;25.77;;;17.38;;
39728;SDS011;25402;42.004;23.088;2022-09-01T00:23:24;33.65;;;18.27;;
39728;SDS011;25402;42.004;23.088;2022-09-01T00:25:51;31.13;;;17.30;;
39728;SDS011;25402;42.004;23.088;2022-09-01T00:28:20;26.85;;;17.98;;
39728;SDS011;25402;42.004;23.088;2022-09-01T00:30:47;27.23;;;17.95;;
39728;SDS011;25402;42.004;23.088;2022-09-01T00:33:14;26.95;;;17.50;;
39728;SDS011;25402;42.004;23.088;2022-09-01T00:35:41;24.73;;;17.80;;
39728;SDS011;25402;42.004;23.088;2022-09-01T00:38:08;29.08;;;17.45;;
39728;SDS011;25402;42.004;23.088;2022-09-01T00:40:35;26.83;;;18.35;;
39728;SDS011;25402;42.004;23.088;2022-09-01T00:43:10;24.48;;;17.67;;
39728;SDS011;25402;42.004;23.088;2022-09-01T00:45:40;28.95;;;18.55;;
39728;SDS011;25402;42.004;23.088;2022-09-01T00:48:09;27.65;;;17.92;;
39728;SDS011;25402;42.004;23.088;2022-09-01T00:50:36;51.58;;;18.65;;
39728;SDS011;25402;42.004;23.088;2022-09-01T00:53:04;34.15;;;17.98;;
39728;SDS011;25402;42.004;23.088;2022-09-01T00:55:33;31.55;;;17.98;;
39728;SDS011;25402;42.004;23.088;2022-09-01T00:58:02;34.45;;;18.38;;
39728;SDS011;25402;42.004;23.088;2022-09-01T01:00:32;41.13;;;19.08;;
39728;SDS011;25402;42.004;23.088;2022-09-01T01:03:06;29.80;;;18.13;;
39728;SDS011;25402;42.004;23.088;2022-09-01T01:05:35;30.77;;;17.13;;
39728;SDS011;25402;42.004;23.088;2022-09-01T01:08:05;21.98;;;14.90;;
39728;SDS011;25402;42.004;23.088;2022-09-01T01:10:34;29.95;;;16.48;;
39728;SDS011;25402;42.004;23.088;2022-09-01T01:13:05;39.25;;;16.17;;
39728;SDS011;25402;42.004;23.088;2022-09-01T01:15:34;40.03;;;16.23;;
39728;SDS011;25402;42.004;23.088;2022-09-01T01:18:02;41.45;;;16.85;;
39728;SDS011;25402;42.004;23.088;2022-09-01T01:20:30;65.82;;;17.05;;
39728;SDS011;25402;42.004;23.088;2022-09-01T01:23:20;33.50;;;17.48;;
39728;SDS011;25402;42.004;23.088;2022-09-01T01:25:58;28.00;;;17.58;;
39728;SDS011;25402;42.004;23.088;2022-09-01T01:28:27;35.03;;;19.27;;
39728;SDS011;25402;42.004;23.088;2022-09-01T01:30:57;32.13;;;19.17;;
39728;SDS011;25402;42.004;23.088;2022-09-01T01:33:28;31.00;;;19.25;;
39728;SDS011;25402;42.004;23.088;2022-09-01T01:35:56;34.75;;;20.33;;
39728;SDS011;25402;42.004;23.088;2022-09-01T01:38:24;33.65;;;19.23;;
39728;SDS011;25402;42.004;23.088;2022-09-01T01:40:51;39.75;;;19.25;;
39728;SDS011;25402;42.004;23.088;2022-09-01T01:43:21;35.67;;;21.13;;
39728;SDS011;25402;42.004;23.088;2022-09-01T01:45:48;30.25;;;18.33;;
39728;SDS011;25402;42.004;23.088;2022-09-01T01:48:17;34.05;;;20.05;;
39728;SDS011;25402;42.004;23.088;2022-09-01T01:50:47;35.55;;;19.45;;
39728;SDS011;25402;42.004;23.088;2022-09-01T01:53:14;39.25;;;18.80;;
39728;SDS011;25402;42.004;23.088;2022-09-01T01:55:43;56.30;;;23.40;;
39728;SDS011;25402;42.004;23.088;2022-09-01T01:58:12;55.97;;;24.42;;
39728;SDS011;25402;42.004;23.088;2022-09-01T02:00:41;60.53;;;26.00;;
39728;SDS011;25402;42.004;23.088;2022-09-01T02:03:11;66.53;;;28.13;;
39728;SDS011;25402;42.004;23.088;2022-09-01T02:05:41;72.63;;;27.30;;
39728;SDS011;25402;42.004;23.088;2022-09-01T02:08:08;60.28;;;27.77;;
39728;SDS011;25402;42.004;23.088;2022-09-01T02:10:38;60.28;;;25.98;;
39728;SDS011;25402;42.004;23.088;2022-09-01T02:13:08;55.53;;;25.25;;
39728;SDS011;25402;42.004;23.088;2022-09-01T02:15:42;53.72;;;24.73;;
39728;SDS011;25402;42.004;23.088;2022-09-01T02:18:12;61.75;;;26.25;;
39728;SDS011;25402;42.004;23.088;2022-09-01T02:20:40;67.05;;;27.50;;
39728;SDS011;25402;42.004;23.088;2022-09-01T02:23:08;57.10;;;25.60;;
39728;SDS011;25402;42.004;23.088;2022-09-01T02:25:36;59.53;;;25.73;;
39728;SDS011;25402;42.004;23.088;2022-09-01T02:28:08;73.85;;;27.83;;
39728;SDS011;25402;42.004;23.088;2022-09-01T02:30:41;69.28;;;28.30;;
39728;SDS011;25402;42.004;23.088;2022-09-01T02:33:09;74.07;;;29.77;;
39728;SDS011;25402;42.004;23.088;2022-09-01T02:35:36;65.43;;;28.33;;
39728;SDS011;25402;42.004;23.088;2022-09-01T02:38:03;87.53;;;28.45;;
39728;SDS011;25402;42.004;23.088;2022-09-01T02:40:31;75.70;;;28.83;;
39728;SDS011;25402;42.004;23.088;2022-09-01T02:42:59;70.85;;;29.50;;
39728;SDS011;25402;42.004;23.088;2022-09-01T02:45:26;100.38;;;28.45;;
39728;SDS011;25402;42.004;23.088;2022-09-01T02:47:55;144.98;;;28.20;;
39728;SDS011;25402;42.004;23.088;2022-09-01T02:50:23;148.75;;;30.40;;
39728;SDS011;25402;42.004;23.088;2022-09-01T02:52:51;175.07;;;31.50;;
39728;SDS011;25402;42.004;23.088;2022-09-01T02:55:18;106.20;;;34.20;;
39728;SDS011;25402;42.004;23.088;2022-09-01T02:57:47;127.40;;;43.90;;
39728;SDS011;25402;42.004;23.088;2022-09-01T03:00:15;126.68;;;37.80;;
39728;SDS011;25402;42.004;23.088;2022-09-01T03:02:55;111.60;;;40.95;;
39728;SDS011;25402;42.004;23.088;2022-09-01T03:05:23;75.85;;;34.20;;
39728;SDS011;25402;42.004;23.088;2022-09-01T03:07:53;66.32;;;31.40;;
39728;SDS011;25402;42.004;23.088;2022-09-01T03:10:24;61.58;;;31.17;;
39728;SDS011;25402;42.004;23.088;2022-09-01T03:12:56;60.65;;;30.00;;
39728;SDS011;25402;42.004;23.088;2022-09-01T03:15:24;55.33;;;29.13;;
39728;SDS011;25402;42.004;23.088;2022-09-01T03:17:51;51.45;;;27.63;;
39728;SDS011;25402;42.004;23.088;2022-09-01T03:20:20;51.85;;;27.83;;
39728;SDS011;25402;42.004;23.088;2022-09-01T03:22:47;50.90;;;27.13;;
39728;SDS011;25402;42.004;23.088;2022-09-01T03:25:16;47.40;;;26.25;;
39728;SDS011;25402;42.004;23.088;2022-09-01T03:27:44;48.30;;;26.27;;
39728;SDS011;25402;42.004;23.088;2022-09-01T03:30:11;45.88;;;26.10;;
39728;SDS011;25402;42.004;23.088;2022-09-01T03:32:39;46.22;;;24.83;;
39728;SDS011;25402;42.004;23.088;2022-09-01T03:35:07;53.83;;;26.90;;
39728;SDS011;25402;42.004;23.088;2022-09-01T03:37:35;51.90;;;25.73;;
39728;SDS011;25402;42.004;23.088;2022-09-01T03:40:04;45.67;;;24.63;;
39728;SDS011;25402;42.004;23.088;2022-09-01T03:42:33;44.17;;;25.25;;
39728;SDS011;25402;42.004;23.088;2022-09-01T03:45:00;43.28;;;25.55;;
39728;SDS011;25402;42.004;23.088;2022-09-01T03:47:33;44.50;;;25.50;;
39728;SDS011;25402;42.004;23.088;2022-09-01T03:50:05;46.45;;;25.27;;
39728;SDS011;25402;42.004;23.088;2022-09-01T03:52:38;44.47;;;24.10;;
39728;SDS011;25402;42.004;23.088;2022-09-01T03:55:06;49.10;;;24.63;;
39728;SDS011;25402;42.004;23.088;2022-09-01T03:57:34;36.92;;;22.15;;
39728;SDS011;25402;42.004;23.088;2022-09-01T04:00:07;16.30;;;11.23;;
39728;SDS011;25402;42.004;23.088;2022-09-01T04:02:44;16.67;;;10.80;;
39728;SDS011;25402;42.004;23.088;2022-09-01T04:05:15;21.75;;;13.13;;
39728;SDS011;25402;42.004;23.088;2022-09-01T04:07:47;27.42;;;13.82;;
39728;SDS011;25402;42.004;23.088;2022-09-01T04:10:14;28.23;;;16.30;;
39728;SDS011;25402;42.004;23.088;2022-09-01T04:12:42;28.25;;;17.50;;
39728;SDS011;25402;42.004;23.088;2022-09-01T04:15:10;31.15;;;18.52;;
39728;SDS011;25402;42.004;23.088;2022-09-01T04:17:39;45.92;;;20.25;;
39728;SDS011;25402;42.004;23.088;2022-09-01T04:20:23;39.95;;;18.20;;
39728;SDS011;25402;42.004;23.088;2022-09-01T04:22:51;35.15;;;20.05;;
39728;SDS011;25402;42.004;23.088;2022-09-01T04:25:19;40.88;;;21.05;;
39728;SDS011;25402;42.004;23.088;2022-09-01T04:27:48;31.67;;;18.48;;
39728;SDS011;25402;42.004;23.088;2022-09-01T04:30:15;38.88;;;19.20;;
39728;SDS011;25402;42.004;23.088;2022-09-01T04:32:42;48.92;;;19.98;;
39728;SDS011;25402;42.004;23.088;2022-09-01T04:35:11;40.50;;;20.13;;
39728;SDS011;25402;42.004;23.088;2022-09-01T04:37:41;32.58;;;19.02;;
39728;SDS011;25402;42.004;23.088;2022-09-01T04:40:10;39.03;;;20.40;;
39728;SDS011;25402;42.004;23.088;2022-09-01T04:42:39;43.00;;;21.38;;
39728;SDS011;25402;42.004;23.088;2022-09-01T04:45:07;35.97;;;21.17;;
39728;SDS011;25402;42.004;23.088;2022-09-01T04:47:38;55.78;;;27.33;;
39728;SDS011;25402;42.004;23.088;2022-09-01T04:50:06;65.03;;;24.95;;
39728;SDS011;25402;42.004;23.088;2022-09-01T04:52:38;63.28;;;25.10;;
39728;SDS011;25402;42.004;23.088;2022-09-01T04:55:07;57.72;;;29.48;;
39728;SDS011;25402;42.004;23.088;2022-09-01T04:57:42;55.38;;;28.02;;
39728;SDS011;25402;42.004;23.088;2022-09-01T05:00:12;49.95;;;27.58;;
39728;SDS011;25402;42.004;23.088;2022-09-01T05:02:47;55.92;;;25.65;;
39728;SDS011;25402;42.004;23.088;2022-09-01T05:05:17;49.65;;;25.85;;
39728;SDS011;25402;42.004;23.088;2022-09-01T05:07:46;62.33;;;24.75;;
39728;SDS011;25402;42.004;23.088;2022-09-01T05:10:19;49.88;;;24.60;;
39728;SDS011;25402;42.004;23.088;2022-09-01T05:12:46;49.70;;;22.85;;
39728;SDS011;25402;42.004;23.088;2022-09-01T05:15:17;50.60;;;24.77;;
39728;SDS011;25402;42.004;23.088;2022-09-01T05:17:45;48.47;;;24.25;;
39728;SDS011;25402;42.004;23.088;2022-09-01T05:20:15;48.75;;;22.38;;
39728;SDS011;25402;42.004;23.088;2022-09-01T05:22:46;41.58;;;22.17;;
39728;SDS011;25402;42.004;23.088;2022-09-01T05:25:13;49.75;;;24.15;;
39728;SDS011;25402;42.004;23.088;2022-09-01T05:27:42;47.30;;;23.55;;
39728;SDS011;25402;42.004;23.088;2022-09-01T05:30:13;47.63;;;24.17;;
39728;SDS011;25402;42.004;23.088;2022-09-01T05:32:42;44.75;;;23.30;;
39728;SDS011;25402;42.004;23.088;2022-09-01T05:35:13;54.03;;;25.05;;
39728;SDS011;25402;42.004;23.088;2022-09-01T05:37:41;42.72;;;23.33;;
39728;SDS011;25402;42.004;23.088;2022-09-01T05:40:09;101.22;;;26.67;;
39728;SDS011;25402;42.004;23.088;2022-09-01T05:42:41;49.60;;;23.98;;
39728;SDS011;25402;42.004;23.088;2022-09-01T05:45:09;47.45;;;24.10;;
39728;SDS011;25402;42.004;23.088;2022-09-01T05:47:38;59.28;;;24.80;;
39728;SDS011;25402;42.004;23.088;2022-09-01T05:50:06;51.42;;;24.52;;
39728;SDS011;25402;42.004;23.088;2022-09-01T05:52:37;57.50;;;24.92;;
39728;SDS011;25402;42.004;23.088;2022-09-01T05:55:08;48.63;;;23.60;;
39728;SDS011;25402;42.004;23.088;2022-09-01T05:57:35;45.25;;;24.65;;
39728;SDS011;25402;42.004;23.088;2022-09-01T06:00:06;47.15;;;23.63;;
39728;SDS011;25402;42.004;23.088;2022-09-01T06:02:38;46.33;;;22.88;;
39728;SDS011;25402;42.004;23.088;2022-09-01T06:05:07;49.35;;;25.52;;
39728;SDS011;25402;42.004;23.088;2022-09-01T06:07:35;54.17;;;25.50;;
39728;SDS011;25402;42.004;23.088;2022-09-01T06:10:03;52.60;;;25.55;;
39728;SDS011;25402;42.004;23.088;2022-09-01T06:12:31;46.22;;;23.70;;
39728;SDS011;25402;42.004;23.088;2022-09-01T06:14:58;46.42;;;24.05;;
39728;SDS011;25402;42.004;23.088;2022-09-01T06:17:27;46.22;;;25.33;;
39728;SDS011;25402;42.004;23.088;2022-09-01T06:19:55;51.55;;;25.00;;
39728;SDS011;25402;42.004;23.088;2022-09-01T06:22:23;45.83;;;24.90;;
39728;SDS011;25402;42.004;23.088;2022-09-01T06:24:52;45.03;;;24.02;;
39728;SDS011;25402;42.004;23.088;2022-09-01T06:27:20;44.67;;;24.75;;
39728;SDS011;25402;42.004;23.088;2022-09-01T06:29:48;53.60;;;25.92;;
39728;SDS011;25402;42.004;23.088;2022-09-01T06:32:17;42.78;;;22.27;;
39728;SDS011;25402;42.004;23.088;2022-09-01T06:34:46;37.78;;;20.63;;
39728;SDS011;25402;42.004;23.088;2022-09-01T06:37:16;56.58;;;26.25;;
39728;SDS011;25402;42.004;23.088;2022-09-01T06:39:47;50.40;;;26.85;;
39728;SDS011;25402;42.004;23.088;2022-09-01T06:42:15;52.10;;;27.08;;
39728;SDS011;25402;42.004;23.088;2022-09-01T06:44:43;49.20;;;25.73;;
39728;SDS011;25402;42.004;23.088;2022-09-01T06:47:11;47.58;;;25.80;;
39728;SDS011;25402;42.004;23.088;2022-09-01T06:49:39;44.42;;;26.42;;
39728;SDS011;25402;42.004;23.088;2022-09-01T06:52:08;53.45;;;24.83;;
39728;SDS011;25402;42.004;23.088;2022-09-01T06:54:36;52.50;;;25.52;;
39728;SDS011;25402;42.004;23.088;2022-09-01T06:57:03;51.83;;;27.00;;
39728;SDS011;25402;42.004;23.088;2022-09-01T06:59:31;50.13;;;26.98;;
39728;SDS011;25402;42.004;23.088;2022-09-01T07:02:00;51.00;;;27.75;;
39728;SDS011;25402;42.004;23.088;2022-09-01T07:04:28;73.10;;;39.15;;
39728;SDS011;25402;42.004;23.088;2022-09-01T07:06:57;78.40;;;43.28;;
39728;SDS011;25402;42.004;23.088;2022-09-01T07:09:36;62.10;;;33.38;;
39728;SDS011;25402;42.004;23.088;2022-09-01T07:12:05;68.63;;;36.55;;
39728;SDS011;25402;42.004;23.088;2022-09-01T07:14:35;80.70;;;34.53;;
39728;SDS011;25402;42.004;23.088;2022-09-01T07:17:10;48.10;;;27.85;;
39728;SDS011;25402;42.004;23.088;2022-09-01T07:19:40;48.75;;;26.33;;
39728;SDS011;25402;42.004;23.088;2022-09-01T07:22:07;67.13;;;26.13;;
39728;SDS011;25402;42.004;23.088;2022-09-01T07:24:36;43.15;;;24.05;;
39728;SDS011;25402;42.004;23.088;2022-09-01T07:27:04;51.90;;;24.30;;
39728;SDS011;25402;42.004;23.088;2022-09-01T07:29:33;45.05;;;22.77;;
39728;SDS011;25402;42.004;23.088;2022-09-01T07:32:00;43.15;;;24.63;;
39728;SDS011;25402;42.004;23.088;2022-09-01T07:34:28;41.08;;;24.95;;
39728;SDS011;25402;42.004;23.088;2022-09-01T07:36:55;68.25;;;25.30;;
39728;SDS011;25402;42.004;23.088;2022-09-01T07:39:24;42.38;;;24.60;;
39728;SDS011;25402;42.004;23.088;2022-09-01T07:41:52;54.33;;;25.00;;
39728;SDS011;25402;42.004;23.088;2022-09-01T07:44:19;40.45;;;24.55;;
39728;SDS011;25402;42.004;23.088;2022-09-01T07:46:47;65.70;;;24.52;;
39728;SDS011;25402;42.004;23.088;2022-09-01T07:49:16;49.70;;;24.30;;
39728;SDS011;25402;42.004;23.088;2022-09-01T07:51:43;45.30;;;22.30;;
39728;SDS011;25402;42.004;23.088;2022-09-01T07:54:14;41.38;;;23.55;;
39728;SDS011;25402;42.004;23.088;2022-09-01T07:56:41;54.67;;;23.95;;
39728;SDS011;25402;42.004;23.088;2022-09-01T07:59:10;41.42;;;23.55;;
39728;SDS011;25402;42.004;23.088;2022-09-01T08:01:38;41.72;;;22.23;;
39728;SDS011;25402;42.004;23.088;2022-09-01T08:04:07;39.45;;;21.85;;
39728;SDS011;25402;42.004;23.088;2022-09-01T08:06:34;40.78;;;22.02;;
39728;SDS011;25402;42.004;23.088;2022-09-01T08:09:02;34.72;;;22.25;;
39728;SDS011;25402;42.004;23.088;2022-09-01T08:11:31;36.25;;;20.75;;
39728;SDS011;25402;42.004;23.088;2022-09-01T08:13:59;41.95;;;21.45;;
39728;SDS011;25402;42.004;23.088;2022-09-01T08:16:28;38.38;;;21.38;;
39728;SDS011;25402;42.004;23.088;2022-09-01T08:18:56;41.47;;;21.65;;
39728;SDS011;25402;42.004;23.088;2022-09-01T08:21:24;34.38;;;19.33;;
39728;SDS011;25402;42.004;23.088;2022-09-01T08:23:52;39.97;;;21.15;;
39728;SDS011;25402;42.004;23.088;2022-09-01T08:26:21;35.17;;;19.58;;
39728;SDS011;25402;42.004;23.088;2022-09-01T08:28:51;31.30;;;18.67;;
39728;SDS011;25402;42.004;23.088;2022-09-01T08:31:19;30.83;;;19.00;;
39728;SDS011;25402;42.004;23.088;2022-09-01T08:33:48;28.27;;;19.35;;
39728;SDS011;25402;42.004;23.088;2022-09-01T08:36:16;30.05;;;18.77;;
39728;SDS011;25402;42.004;23.088;2022-09-01T08:38:43;35.13;;;19.63;;
39728;SDS011;25402;42.004;23.088;2022-09-01T08:41:14;36.65;;;18.90;;
39728;SDS011;25402;42.004;23.088;2022-09-01T08:43:49;38.08;;;18.48;;
39728;SDS011;25402;42.004;23.088;2022-09-01T08:46:25;32.35;;;18.85;;
39728;SDS011;25402;42.004;23.088;2022-09-01T08:48:56;39.65;;;19.02;;
39728;SDS011;25402;42.004;23.088;2022-09-01T08:51:26;32.33;;;17.75;;
39728;SDS011;25402;42.004;23.088;2022-09-01T08:54:00;34.42;;;19.73;;
39728;SDS011;25402;42.004;23.088;2022-09-01T08:56:32;34.75;;;18.95;;
39728;SDS011;25402;42.004;23.088;2022-09-01T08:59:01;33.88;;;18.23;;
39728;SDS011;25402;42.004;23.088;2022-09-01T09:01:30;32.85;;;19.77;;
39728;SDS011;25402;42.004;23.088;2022-09-01T09:04:12;42.17;;;22.58;;
39728;SDS011;25402;42.004;23.088;2022-09-01T09:06:50;40.95;;;21.40;;
39728;SDS011;25402;42.004;23.088;2022-09-01T09:09:26;37.78;;;19.42;;
39728;SDS011;25402;42.004;23.088;2022-09-01T09:12:05;33.65;;;22.00;;
39728;SDS011;25402;42.004;23.088;2022-09-01T09:14:49;42.47;;;21.08;;
39728;SDS011;25402;42.004;23.088;2022-09-01T09:17:42;31.30;;;19.17;;
39728;SDS011;25402;42.004;23.088;2022-09-01T09:20:34;26.13;;;15.82;;
39728;SDS011;25402;42.004;23.088;2022-09-01T09:23:04;23.10;;;15.82;;
39728;SDS011;25402;42.004;23.088;2022-09-01T09:25:37;21.10;;;15.18;;
39728;SDS011;25402;42.004;23.088;2022-09-01T09:28:04;18.63;;;14.50;;
39728;SDS011;25402;42.004;23.088;2022-09-01T09:30:32;28.63;;;17.15;;
39728;SDS011;25402;42.004;23.088;2022-09-01T09:33:01;30.60;;;20.70;;
39728;SDS011;25402;42.004;23.088;2022-09-01T09:35:31;39.78;;;20.05;;
39728;SDS011;25402;42.004;23.088;2022-09-01T09:38:14;35.75;;;20.52;;
39728;SDS011;25402;42.004;23.088;2022-09-01T09:40:59;34.20;;;19.65;;
39728;SDS011;25402;42.004;23.088;2022-09-01T09:43:29;40.58;;;19.80;;
39728;SDS011;25402;42.004;23.088;2022-09-01T09:49:05;29.73;;;14.13;;
39728;SDS011;25402;42.004;23.088;2022-09-01T09:51:40;28.40;;;14.52;;
39728;SDS011;25402;42.004;23.088;2022-09-01T09:54:10;29.60;;;13.85;;
39728;SDS011;25402;42.004;23.088;2022-09-01T09:56:39;40.55;;;13.02;;
39728;SDS011;25402;42.004;23.088;2022-09-01T09:59:22;20.00;;;13.23;;
39728;SDS011;25402;42.004;23.088;2022-09-01T10:01:56;18.50;;;12.00;;
39728;SDS011;25402;42.004;23.088;2022-09-01T10:04:34;23.27;;;12.65;;
39728;SDS011;25402;42.004;23.088;2022-09-01T10:07:21;22.73;;;13.60;;
39728;SDS011;25402;42.004;23.088;2022-09-01T10:09:51;22.77;;;12.70;;
39728;SDS011;25402;42.004;23.088;2022-09-01T10:12:20;24.67;;;12.15;;
39728;SDS011;25402;42.004;23.088;2022-09-01T10:14:49;28.60;;;12.85;;
39728;SDS011;25402;42.004;23.088;2022-09-01T10:17:22;19.33;;;12.68;;
39728;SDS011;25402;42.004;23.088;2022-09-01T10:19:52;22.73;;;12.15;;
39728;SDS011;25402;42.004;23.088;2022-09-01T10:22:23;21.58;;;12.25;;
39728;SDS011;25402;42.004;23.088;2022-09-01T10:24:51;31.95;;;12.93;;
39728;SDS011;25402;42.004;23.088;2022-09-01T10:27:19;23.23;;;12.25;;
39728;SDS011;25402;42.004;23.088;2022-09-01T10:29:50;18.83;;;11.95;;
39728;SDS011;25402;42.004;23.088;2022-09-01T10:32:23;21.77;;;13.48;;
39728;SDS011;25402;42.004;23.088;2022-09-01T10:34:54;21.90;;;13.45;;
39728;SDS011;25402;42.004;23.088;2022-09-01T10:37:24;21.30;;;12.98;;
39728;SDS011;25402;42.004;23.088;2022-09-01T10:46:06;15.00;;;10.40;;
39728;SDS011;25402;42.004;23.088;2022-09-01T10:49:12;19.00;;;10.23;;
39728;SDS011;25402;42.004;23.088;2022-09-01T10:51:45;22.50;;;10.30;;
39728;SDS011;25402;42.004;23.088;2022-09-01T10:57:27;21.17;;;10.38;;
39728;SDS011;25402;42.004;23.088;2022-09-01T11:08:40;17.90;;;10.90;;
39728;SDS011;25402;42.004;23.088;2022-09-01T11:11:20;16.85;;;10.45;;
39728;SDS011;25402;42.004;23.088;2022-09-01T11:13:54;12.68;;;7.93;;
39728;SDS011;25402;42.004;23.088;2022-09-01T11:16:33;29.40;;;15.75;;
39728;SDS011;25402;42.004;23.088;2022-09-01T11:22:08;18.80;;;8.13;;
39728;SDS011;25402;42.004;23.088;2022-09-01T11:25:04;35.60;;;8.73;;
39728;SDS011;25402;42.004;23.088;2022-09-01T11:30:58;22.27;;;7.93;;
39728;SDS011;25402;42.004;23.088;2022-09-01T11:33:39;24.38;;;7.22;;
39728;SDS011;25402;42.004;23.088;2022-09-01T11:36:13;10.63;;;6.80;;
39728;SDS011;25402;42.004;23.088;2022-09-01T11:38:55;28.30;;;8.13;;
39728;SDS011;25402;42.004;23.088;2022-09-01T11:41:30;18.25;;;7.22;;
39728;SDS011;25402;42.004;23.088;2022-09-01T11:44:07;13.27;;;7.30;;
39728;SDS011;25402;42.004;23.088;2022-09-01T11:46:38;11.30;;;7.22;;
39728;SDS011;25402;42.004;23.088;2022-09-01T11:49:08;16.63;;;7.30;;
39728;SDS011;25402;42.004;23.088;2022-09-01T11:51:53;10.60;;;7.28;;
39728;SDS011;25402;42.004;23.088;2022-09-01T11:54:22;16.90;;;7.80;;
39728;SDS011;25402;42.004;23.088;2022-09-01T11:56:50;10.30;;;7.40;;
39728;SDS011;25402;42.004;23.088;2022-09-01T11:59:30;14.57;;;7.05;;
39728;SDS011;25402;42.004;23.088;2022-09-01T12:01:59;16.95;;;12.10;;
39728;SDS011;25402;42.004;23.088;2022-09-01T12:04:34;17.70;;;11.25;;
39728;SDS011;25402;42.004;23.088;2022-09-01T12:07:06;16.90;;;9.50;;
39728;SDS011;25402;42.004;23.088;2022-09-01T12:09:37;36.78;;;16.17;;
39728;SDS011;25402;42.004;23.088;2022-09-01T12:12:24;16.50;;;10.13;;
39728;SDS011;25402;42.004;23.088;2022-09-01T12:15:03;15.43;;;8.57;;
39728;SDS011;25402;42.004;23.088;2022-09-01T12:17:37;17.63;;;7.20;;
39728;SDS011;25402;42.004;23.088;2022-09-01T12:22:53;14.70;;;7.95;;
39728;SDS011;25402;42.004;23.088;2022-09-01T12:25:22;14.00;;;7.55;;
39728;SDS011;25402;42.004;23.088;2022-09-01T12:27:51;12.82;;;6.70;;
39728;SDS011;25402;42.004;23.088;2022-09-01T12:30:21;14.98;;;7.25;;
39728;SDS011;25402;42.004;23.088;2022-09-01T12:32:50;16.52;;;7.60;;
39728;SDS011;25402;42.004;23.088;2022-09-01T12:35:20;21.95;;;8.80;;
39728;SDS011;25402;42.004;23.088;2022-09-01T12:40:54;14.68;;;8.30;;
39728;SDS011;25402;42.004;23.088;2022-09-01T12:43:26;15.63;;;7.35;;
39728;SDS011;25402;42.004;23.088;2022-09-01T12:45:56;12.65;;;7.43;;
39728;SDS011;25402;42.004;23.088;2022-09-01T12:48:26;17.88;;;6.60;;
39728;SDS011;25402;42.004;23.088;2022-09-01T12:50:55;13.15;;;6.75;;
39728;SDS011;25402;42.004;23.088;2022-09-01T12:53:28;14.95;;;7.45;;
39728;SDS011;25402;42.004;23.088;2022-09-01T12:59:02;17.33;;;7.35;;
39728;SDS011;25402;42.004;23.088;2022-09-01T13:01:34;13.50;;;7.60;;
39728;SDS011;25402;42.004;23.088;2022-09-01T13:04:07;17.65;;;7.47;;
39728;SDS011;25402;42.004;23.088;2022-09-01T13:06:37;12.60;;;6.65;;
39728;SDS011;25402;42.004;23.088;2022-09-01T13:09:04;15.88;;;6.53;;
39728;SDS011;25402;42.004;23.088;2022-09-01T13:11:32;13.68;;;6.90;;
39728;SDS011;25402;42.004;23.088;2022-09-01T13:13:59;13.48;;;7.25;;
39728;SDS011;25402;42.004;23.088;2022-09-01T13:16:29;13.48;;;7.30;;
39728;SDS011;25402;42.004;23.088;2022-09-01T13:19:00;14.05;;;7.50;;
39728;SDS011;25402;42.004;23.088;2022-09-01T13:21:27;9.77;;;7.40;;
39728;SDS011;25402;42.004;23.088;2022-09-01T13:23:54;20.52;;;8.10;;
39728;SDS011;25402;42.004;23.088;2022-09-01T13:26:21;20.23;;;8.30;;
39728;SDS011;25402;42.004;23.088;2022-09-01T13:28:50;14.07;;;8.30;;
39728;SDS011;25402;42.004;23.088;2022-09-01T13:31:18;14.10;;;8.10;;
39728;SDS011;25402;42.004;23.088;2022-09-01T13:33:46;15.18;;;7.88;;
39728;SDS011;25402;42.004;23.088;2022-09-01T13:36:14;30.98;;;8.52;;
39728;SDS011;25402;42.004;23.088;2022-09-01T13:38:42;22.80;;;8.10;;
39728;SDS011;25402;42.004;23.088;2022-09-01T13:41:11;14.55;;;7.50;;
39728;SDS011;25402;42.004;23.088;2022-09-01T13:43:39;14.98;;;7.78;;
39728;SDS011;25402;42.004;23.088;2022-09-01T13:46:07;10.88;;;7.97;;
39728;SDS011;25402;42.004;23.088;2022-09-01T13:48:35;17.15;;;7.45;;
39728;SDS011;25402;42.004;23.088;2022-09-01T13:51:03;18.45;;;8.93;;
39728;SDS011;25402;42.004;23.088;2022-09-01T13:53:32;18.98;;;9.10;;
39728;SDS011;25402;42.004;23.088;2022-09-01T13:55:59;13.63;;;9.30;;
39728;SDS011;25402;42.004;23.088;2022-09-01T13:58:26;14.52;;;8.82;;
39728;SDS011;25402;42.004;23.088;2022-09-01T14:00:53;19.17;;;8.63;;
39728;SDS011;25402;42.004;23.088;2022-09-01T14:03:24;44.33;;;15.95;;
39728;SDS011;25402;42.004;23.088;2022-09-01T14:05:51;22.35;;;11.82;;
39728;SDS011;25402;42.004;23.088;2022-09-01T14:08:19;15.57;;;10.38;;
39728;SDS011;25402;42.004;23.088;2022-09-01T14:10:49;29.80;;;9.55;;
39728;SDS011;25402;42.004;23.088;2022-09-01T14:13:17;21.55;;;7.72;;
39728;SDS011;25402;42.004;23.088;2022-09-01T14:15:45;20.02;;;8.30;;
39728;SDS011;25402;42.004;23.088;2022-09-01T14:18:13;24.83;;;8.20;;
39728;SDS011;25402;42.004;23.088;2022-09-01T14:20:41;16.45;;;8.55;;
39728;SDS011;25402;42.004;23.088;2022-09-01T14:23:11;15.13;;;8.93;;
39728;SDS011;25402;42.004;23.088;2022-09-01T14:25:41;26.70;;;10.63;;
39728;SDS011;25402;42.004;23.088;2022-09-01T14:28:10;18.08;;;10.00;;
39728;SDS011;25402;42.004;23.088;2022-09-01T14:30:38;13.95;;;9.45;;
39728;SDS011;25402;42.004;23.088;2022-09-01T14:33:07;17.90;;;9.27;;
39728;SDS011;25402;42.004;23.088;2022-09-01T14:35:36;13.57;;;9.48;;
39728;SDS011;25402;42.004;23.088;2022-09-01T14:38:04;15.85;;;9.38;;
39728;SDS011;25402;42.004;23.088;2022-09-01T14:40:33;15.27;;;9.38;;
39728;SDS011;25402;42.004;23.088;2022-09-01T14:43:03;16.52;;;9.63;;
39728;SDS011;25402;42.004;23.088;2022-09-01T14:45:32;23.63;;;10.00;;
39728;SDS011;25402;42.004;23.088;2022-09-01T14:48:01;17.35;;;9.93;;
39728;SDS011;25402;42.004;23.088;2022-09-01T14:50:28;15.07;;;10.57;;
39728;SDS011;25402;42.004;23.088;2022-09-01T14:52:58;22.05;;;11.13;;
39728;SDS011;25402;42.004;23.088;2022-09-01T14:55:27;17.13;;;10.15;;
39728;SDS011;25402;42.004;23.088;2022-09-01T14:57:55;20.10;;;10.68;;
39728;SDS011;25402;42.004;23.088;2022-09-01T15:00:24;21.85;;;11.82;;
39728;SDS011;25402;42.004;23.088;2022-09-01T15:02:56;18.10;;;10.98;;
39728;SDS011;25402;42.004;23.088;2022-09-01T15:05:23;18.05;;;10.63;;